createdAt,value
2019-05-07T00:00:34.007Z,99.99
2019-05-07T00:01:34.346Z,99.99
2019-05-07T00:02:34.020Z,99.99
2019-05-07T00:03:33.933Z,99.99
2019-05-07T00:04:33.960Z,99.99
2019-05-07T00:05:33.922Z,99.99
2019-05-07T00:06:33.945Z,99.99
2019-05-07T00:07:33.887Z,99.99
2019-05-07T00:08:33.963Z,99.99
2019-05-07T00:09:33.884Z,99.99
2019-05-07T00:10:33.870Z,99.99
2019-05-07T00:11:33.852Z,99.99
2019-05-07T00:12:33.886Z,99.99
2019-05-07T00:13:33.822Z,99.99
2019-05-07T00:14:37.339Z,99.99
2019-05-07T00:15:33.803Z,99.99
2019-05-07T00:16:42.333Z,99.99
2019-05-07T00:17:33.781Z,99.99
2019-05-07T00:18:42.735Z,99.99
2019-05-07T00:19:33.784Z,99.99
2019-05-07T00:20:33.837Z,99.99
2019-05-07T00:21:33.738Z,99.99
2019-05-07T00:22:33.747Z,99.99
2019-05-07T00:23:33.717Z,99.99
2019-05-07T00:24:33.791Z,99.99
2019-05-07T00:25:33.699Z,99.99
2019-05-07T00:26:33.775Z,99.99
2019-05-07T00:27:33.676Z,99.99
2019-05-07T00:28:33.686Z,99.99
2019-05-07T00:29:33.662Z,99.99
2019-05-07T00:30:33.700Z,99.99
2019-05-07T00:31:33.627Z,99.99
2019-05-07T00:32:33.713Z,99.99
2019-05-07T00:33:33.604Z,99.99
2019-05-07T00:34:33.655Z,99.99
2019-05-07T00:35:33.586Z,99.99
2019-05-07T00:36:33.640Z,99.99
2019-05-07T00:37:33.563Z,99.99
2019-05-07T00:38:33.655Z,99.99
2019-05-07T00:39:33.556Z,99.99
2019-05-07T00:40:33.569Z,99.99
2019-05-07T00:41:33.521Z,99.99
2019-05-07T00:42:33.580Z,99.99
2019-05-07T00:43:33.500Z,99.99
2019-05-07T00:44:33.521Z,99.99
2019-05-07T00:45:33.480Z,99.99
2019-05-07T00:46:33.512Z,99.99
2019-05-07T00:47:33.454Z,99.99
2019-05-07T00:48:33.522Z,99.99
2019-05-07T00:49:33.451Z,99.99
2019-05-07T00:50:33.539Z,99.99
2019-05-07T00:51:33.677Z,99.99
2019-05-07T00:52:33.681Z,99.99
2019-05-07T00:53:33.391Z,99.99
2019-05-07T00:54:33.491Z,99.99
2019-05-07T00:55:33.369Z,99.99
2019-05-07T00:56:33.474Z,99.99
2019-05-07T00:57:33.352Z,99.99
2019-05-07T00:58:33.387Z,99.99
2019-05-07T00:59:33.341Z,99.99
2019-05-07T01:00:33.438Z,99.99
2019-05-07T01:01:33.314Z,99.99
2019-05-07T01:02:33.313Z,99.99
2019-05-07T01:03:33.287Z,99.99
2019-05-07T01:04:34.379Z,99.99
2019-05-07T01:05:33.262Z,99.99
2019-05-07T01:06:35.285Z,99.99
2019-05-07T01:07:33.244Z,99.99
2019-05-07T01:08:33.250Z,99.99
2019-05-07T01:09:33.230Z,99.99
2019-05-07T01:10:33.265Z,99.99
2019-05-07T01:11:33.637Z,99.99
2019-05-07T01:12:33.290Z,99.99
2019-05-07T01:13:33.176Z,99.99
2019-05-07T01:14:33.221Z,99.99
2019-05-07T01:15:34.726Z,99.99
2019-05-07T01:16:33.247Z,99.99
2019-05-07T01:17:33.609Z,99.99
2019-05-07T01:18:33.211Z,99.99
2019-05-07T01:19:33.125Z,99.99
2019-05-07T01:20:33.136Z,99.99
2019-05-07T01:21:33.092Z,99.99
2019-05-07T01:22:33.229Z,99.99
2019-05-07T01:23:33.068Z,99.99
2019-05-07T01:24:33.181Z,99.99
2019-05-07T01:25:33.059Z,99.99
2019-05-07T01:26:33.223Z,99.99
2019-05-07T01:27:33.033Z,99.99
2019-05-07T01:28:33.077Z,99.99
2019-05-07T01:29:33.047Z,99.99
2019-05-07T01:30:33.090Z,99.99
2019-05-07T01:31:33.028Z,99.99
2019-05-07T01:32:33.153Z,99.99
2019-05-07T01:33:33.305Z,99.99
2019-05-07T01:34:33.020Z,99.99
2019-05-07T01:35:32.953Z,99.99
2019-05-07T01:36:33.030Z,99.99
2019-05-07T01:37:32.928Z,99.99
2019-05-07T01:38:33.222Z,99.99
2019-05-07T01:39:32.956Z,99.99
2019-05-07T01:40:32.986Z,99.99
2019-05-07T01:41:32.881Z,99.99
2019-05-07T01:42:36.419Z,99.99
2019-05-07T01:43:32.861Z,99.99
2019-05-07T01:44:32.880Z,99.99
2019-05-07T01:45:45.830Z,99.99
2019-05-07T01:46:33.830Z,99.99
2019-05-07T01:47:33.927Z,99.99
2019-05-07T01:48:32.804Z,99.99
2019-05-07T01:49:47.863Z,99.99
2019-05-07T01:50:32.795Z,99.99
2019-05-07T01:51:34.873Z,99.99
2019-05-07T01:52:33.271Z,99.99
2019-05-07T01:53:33.863Z,99.99
2019-05-07T01:54:33.472Z,99.99
2019-05-07T01:55:32.783Z,99.99
2019-05-07T01:56:33.207Z,99.99
2019-05-07T01:57:32.881Z,99.99
2019-05-07T01:58:33.274Z,99.99
2019-05-07T01:59:32.778Z,99.99
2019-05-07T02:00:32.739Z,99.99
2019-05-07T02:01:35.620Z,99.99
2019-05-07T02:02:32.655Z,99.99
2019-05-07T02:03:32.920Z,99.99
2019-05-07T02:04:32.800Z,99.99
2019-05-07T02:05:32.803Z,99.99
2019-05-07T02:06:32.843Z,99.99
2019-05-07T02:07:33.460Z,99.99
2019-05-07T02:08:32.931Z,99.99
2019-05-07T02:09:34.033Z,99.99
2019-05-07T02:10:32.583Z,99.99
2019-05-07T02:11:32.854Z,99.99
2019-05-07T02:12:32.549Z,99.99
2019-05-07T02:13:33.872Z,99.99
2019-05-07T02:14:33.071Z,99.99
2019-05-07T02:15:32.607Z,99.99
2019-05-07T02:16:32.754Z,99.99
2019-05-07T02:17:32.599Z,99.99
2019-05-07T02:18:32.709Z,99.99
2019-05-07T02:19:33.047Z,99.99
2019-05-07T02:20:32.472Z,99.99
2019-05-07T02:21:33.047Z,99.99
2019-05-07T02:22:32.448Z,99.99
2019-05-07T02:23:32.995Z,99.99
2019-05-07T02:24:33.892Z,99.99
2019-05-07T02:25:32.943Z,99.99
2019-05-07T02:26:32.396Z,99.99
2019-05-07T02:27:32.987Z,99.99
2019-05-07T02:28:32.937Z,99.99
2019-05-07T02:29:32.620Z,99.99
2019-05-07T02:30:35.081Z,99.99
2019-05-07T02:31:33.774Z,99.99
2019-05-07T02:32:33.415Z,99.99
2019-05-07T02:33:35.128Z,99.99
2019-05-07T02:34:34.221Z,99.99
2019-05-07T02:35:33.301Z,99.99
2019-05-07T02:36:33.953Z,99.99
2019-05-07T02:37:46.469Z,99.99
2019-05-07T02:38:34.119Z,99.99
2019-05-07T02:39:34.280Z,99.99
2019-05-07T02:40:33.890Z,99.99
2019-05-07T02:41:33.036Z,99.99
2019-05-07T02:42:33.569Z,99.99
2019-05-07T02:43:33.834Z,99.99
2019-05-07T02:44:32.525Z,99.99
2019-05-07T02:45:33.168Z,99.99
2019-05-07T02:46:36.077Z,99.99
2019-05-07T02:47:33.130Z,99.99
2019-05-07T02:48:33.348Z,99.99
2019-05-07T02:49:32.922Z,99.99
2019-05-07T02:50:32.909Z,99.99
2019-05-07T02:51:33.476Z,99.99
2019-05-07T02:52:32.479Z,99.99
2019-05-07T02:53:33.691Z,99.99
2019-05-07T02:54:32.880Z,99.99
2019-05-07T02:55:33.645Z,99.99
2019-05-07T02:56:33.330Z,99.99
2019-05-07T02:57:33.920Z,99.99
2019-05-07T02:58:33.127Z,99.99
2019-05-07T02:59:33.605Z,99.99
2019-05-07T03:00:33.359Z,99.99
2019-05-07T03:01:33.442Z,99.99
2019-05-07T03:02:33.182Z,99.99
2019-05-07T03:03:33.515Z,99.99
2019-05-07T03:04:33.350Z,99.99
2019-05-07T03:05:35.012Z,99.99
2019-05-07T03:06:33.882Z,99.99
2019-05-07T03:07:33.550Z,99.99
2019-05-07T03:08:33.381Z,99.99
2019-05-07T03:09:32.853Z,99.99
2019-05-07T03:10:34.023Z,99.99
2019-05-07T03:11:33.915Z,99.99
2019-05-07T03:12:33.515Z,99.99
2019-05-07T03:13:33.760Z,99.99
2019-05-07T03:14:32.465Z,99.99
2019-05-07T03:15:33.158Z,99.99
2019-05-07T03:16:39.767Z,99.99
2019-05-07T03:17:33.508Z,99.99
2019-05-07T03:18:33.527Z,99.99
2019-05-07T03:19:33.125Z,99.99
2019-05-07T03:20:33.416Z,99.99
2019-05-07T03:21:32.897Z,99.99
2019-05-07T03:22:33.766Z,99.99
2019-05-07T03:23:34.051Z,99.99
2019-05-07T03:24:38.787Z,99.99
2019-05-07T03:25:33.803Z,99.99
2019-05-07T03:26:34.135Z,99.99
2019-05-07T03:27:34.097Z,99.99
2019-05-07T03:28:33.584Z,99.99
2019-05-07T03:29:33.389Z,99.99
2019-05-07T03:30:36.062Z,99.99
2019-05-07T03:31:36.288Z,99.99
2019-05-07T03:32:38.416Z,99.99
2019-05-07T03:33:36.696Z,99.99
2019-05-07T03:34:36.637Z,99.99
2019-05-07T03:35:36.808Z,99.99
2019-05-07T03:36:35.430Z,99.99
2019-05-07T03:37:35.291Z,99.99
2019-05-07T03:38:33.476Z,99.99
2019-05-07T03:39:33.761Z,99.99
2019-05-07T03:40:32.872Z,99.99
2019-05-07T03:41:33.342Z,99.99
2019-05-07T03:42:33.482Z,99.99
2019-05-07T03:43:32.570Z,99.99
2019-05-07T03:44:33.856Z,99.99
2019-05-07T03:45:33.530Z,99.99
2019-05-07T03:46:33.662Z,99.99
2019-05-07T03:47:33.157Z,99.99
2019-05-07T03:48:33.227Z,99.99
2019-05-07T03:49:34.205Z,99.99
2019-05-07T03:50:33.824Z,99.99
2019-05-07T03:51:32.955Z,99.99
2019-05-07T03:52:33.600Z,99.99
2019-05-07T03:53:33.780Z,99.99
2019-05-07T03:54:33.987Z,99.99
2019-05-07T03:55:33.224Z,99.99
2019-05-07T03:56:33.033Z,99.99
2019-05-07T03:57:33.319Z,99.99
2019-05-07T03:58:33.999Z,99.99
2019-05-07T03:59:34.182Z,99.99
2019-05-07T04:00:33.218Z,99.99
2019-05-07T04:01:33.484Z,99.99
2019-05-07T04:02:33.200Z,99.99
2019-05-07T04:03:34.088Z,99.99
2019-05-07T04:04:33.270Z,99.99
2019-05-07T04:05:34.200Z,99.99
2019-05-07T04:06:33.212Z,99.99
2019-05-07T04:07:33.689Z,99.99
2019-05-07T04:08:33.371Z,99.99
2019-05-07T04:09:33.405Z,99.99
2019-05-07T04:10:33.766Z,99.99
2019-05-07T04:11:33.769Z,99.99
2019-05-07T04:12:34.324Z,99.99
2019-05-07T04:13:33.540Z,99.99
2019-05-07T04:14:34.471Z,99.99
2019-05-07T04:15:32.943Z,99.99
2019-05-07T04:16:33.230Z,99.99
2019-05-07T04:17:33.951Z,99.99
2019-05-07T04:18:32.926Z,99.99
2019-05-07T04:19:32.819Z,99.99
2019-05-07T04:20:33.371Z,99.99
2019-05-07T04:21:34.229Z,99.99
2019-05-07T04:22:34.280Z,99.99
2019-05-07T04:23:34.277Z,99.99
2019-05-07T04:24:33.248Z,99.99
2019-05-07T04:25:34.350Z,99.99
2019-05-07T04:26:33.923Z,99.99
2019-05-07T04:27:33.212Z,99.99
2019-05-07T04:28:33.380Z,99.99
2019-05-07T04:29:31.111Z,99.99
2019-05-07T04:30:33.063Z,99.99
2019-05-07T04:31:33.934Z,99.99
2019-05-07T04:32:33.452Z,99.99
2019-05-07T04:33:33.298Z,99.99
2019-05-07T04:34:33.590Z,99.99
2019-05-07T04:35:33.461Z,99.99
2019-05-07T04:36:33.985Z,99.99
2019-05-07T04:37:33.227Z,99.99
2019-05-07T04:38:33.385Z,99.99
2019-05-07T04:39:33.477Z,99.99
2019-05-07T04:40:33.730Z,99.99
2019-05-07T04:41:33.015Z,99.99
2019-05-07T04:42:33.462Z,99.99
2019-05-07T04:43:33.329Z,99.99
2019-05-07T04:44:33.227Z,99.99
2019-05-07T04:45:33.428Z,99.99
2019-05-07T04:46:33.328Z,99.99
2019-05-07T04:47:41.553Z,99.99
2019-05-07T04:48:34.174Z,99.99
2019-05-07T04:49:33.252Z,99.99
2019-05-07T04:50:39.463Z,99.99
2019-05-07T04:51:33.586Z,99.99
2019-05-07T04:52:33.550Z,99.99
2019-05-07T04:53:32.758Z,99.99
2019-05-07T04:54:32.871Z,99.99
2019-05-07T04:55:33.471Z,99.99
2019-05-07T04:56:33.146Z,99.99
2019-05-07T04:57:33.015Z,99.99
2019-05-07T04:58:34.343Z,99.99
2019-05-07T04:59:33.047Z,99.99
2019-05-07T05:00:45.795Z,99.99
2019-05-07T05:01:32.849Z,99.99
2019-05-07T05:02:32.509Z,99.99
2019-05-07T05:03:30.749Z,99.99
2019-05-07T05:04:34.664Z,99.99
2019-05-07T05:05:32.983Z,99.99
2019-05-07T05:06:32.933Z,99.99
2019-05-07T05:07:33.322Z,99.99
2019-05-07T05:08:32.515Z,99.99
2019-05-07T05:09:32.925Z,99.99
2019-05-07T05:10:33.472Z,99.99
2019-05-07T05:11:33.311Z,99.99
2019-05-07T05:12:32.645Z,99.99
2019-05-07T05:13:33.144Z,99.99
2019-05-07T05:14:33.457Z,99.99
2019-05-07T05:15:32.089Z,99.99
2019-05-07T05:16:32.621Z,99.99
2019-05-07T05:17:32.009Z,99.99
2019-05-07T05:18:32.807Z,99.99
2019-05-07T05:19:32.315Z,99.99
2019-05-07T05:20:30.571Z,99.99
2019-05-07T05:21:32.249Z,99.33
2019-05-07T05:22:31.732Z,98.82
2019-05-07T05:23:32.295Z,98.62
2019-05-07T05:24:32.788Z,97.89
2019-05-07T05:25:32.317Z,97.33
2019-05-07T05:26:32.476Z,97.08
2019-05-07T05:27:32.588Z,95.68
2019-05-07T05:28:32.359Z,95.74
2019-05-07T05:29:32.313Z,95.45
2019-05-07T05:30:32.593Z,94.57
2019-05-07T05:31:30.440Z,92.25
2019-05-07T05:32:32.421Z,92.76
2019-05-07T05:33:32.394Z,92.57
2019-05-07T05:34:32.767Z,91.89
2019-05-07T05:35:32.091Z,92.16
2019-05-07T05:36:32.762Z,92.22
2019-05-07T05:37:32.141Z,91.62
2019-05-07T05:38:32.280Z,90.86
2019-05-07T05:39:32.043Z,90.98
2019-05-07T05:40:32.005Z,90.73
2019-05-07T05:41:30.305Z,89.81
2019-05-07T05:42:37.277Z,89.50
2019-05-07T05:43:31.917Z,86.38
2019-05-07T05:44:32.023Z,87.88
2019-05-07T05:45:30.262Z,85.46
2019-05-07T05:46:31.949Z,86.07
2019-05-07T05:47:30.245Z,86.27
2019-05-07T05:48:30.255Z,85.14
2019-05-07T05:49:32.195Z,84.91
2019-05-07T05:50:32.974Z,86.52
2019-05-07T05:51:31.689Z,85.90
2019-05-07T05:52:30.281Z,85.22
2019-05-07T05:53:32.540Z,85.70
2019-05-07T05:54:31.844Z,85.80
2019-05-07T05:55:32.136Z,84.61
2019-05-07T05:56:32.287Z,85.14
2019-05-07T05:57:32.246Z,83.15
2019-05-07T05:58:32.386Z,81.06
2019-05-07T05:59:47.313Z,83.39
2019-05-07T06:00:32.864Z,80.99
2019-05-07T06:01:32.067Z,81.20
2019-05-07T06:02:32.210Z,81.20
2019-05-07T06:03:32.239Z,82.35
2019-05-07T06:04:30.086Z,79.38
2019-05-07T06:05:33.877Z,77.67
2019-05-07T06:06:30.068Z,77.67
2019-05-07T06:07:31.939Z,77.71
2019-05-07T06:08:32.314Z,78.76
2019-05-07T06:09:30.023Z,76.40
2019-05-07T06:10:30.095Z,78.56
2019-05-07T06:11:32.075Z,76.44
2019-05-07T06:12:30.007Z,76.48
2019-05-07T06:13:32.258Z,77.71
2019-05-07T06:14:30.053Z,77.64
2019-05-07T06:15:29.937Z,76.81
2019-05-07T06:16:30.035Z,74.26
2019-05-07T06:17:31.908Z,74.26
2019-05-07T06:18:29.946Z,73.81
2019-05-07T06:19:29.912Z,73.27
2019-05-07T06:20:32.028Z,72.69
2019-05-07T06:21:32.151Z,71.97
2019-05-07T06:22:29.872Z,74.08
2019-05-07T06:23:29.847Z,72.31
2019-05-07T06:24:31.780Z,72.41
2019-05-07T06:25:33.229Z,72.96
2019-05-07T06:26:31.787Z,73.47
2019-05-07T06:27:29.807Z,73.13
2019-05-07T06:28:36.779Z,74.08
2019-05-07T06:29:29.792Z,74.56
2019-05-07T06:30:37.813Z,70.30
2019-05-07T06:31:29.757Z,71.15
2019-05-07T06:32:32.013Z,70.00
2019-05-07T06:33:29.734Z,68.67
2019-05-07T06:34:29.782Z,68.74
2019-05-07T06:35:29.712Z,70.75
2019-05-07T06:36:29.776Z,68.40
2019-05-07T06:37:29.742Z,70.40
2019-05-07T06:38:31.559Z,68.64
2019-05-07T06:39:29.700Z,68.03
2019-05-07T06:40:32.067Z,67.85
2019-05-07T06:41:29.666Z,70.68
2019-05-07T06:42:29.701Z,66.91
2019-05-07T06:43:29.622Z,66.77
2019-05-07T06:44:31.899Z,65.44
2019-05-07T06:45:32.309Z,68.74
2019-05-07T06:46:29.629Z,68.67
2019-05-07T06:47:31.776Z,68.33
2019-05-07T06:48:38.830Z,64.15
2019-05-07T06:49:32.468Z,65.48
2019-05-07T06:50:29.586Z,66.97
2019-05-07T06:51:29.543Z,62.84
2019-05-07T06:52:31.451Z,64.78
2019-05-07T06:53:29.531Z,64.54
2019-05-07T06:54:31.962Z,62.81
2019-05-07T06:55:29.535Z,60.66
2019-05-07T06:56:29.598Z,63.37
2019-05-07T06:57:29.512Z,64.18
2019-05-07T06:58:29.517Z,63.20
2019-05-07T06:59:32.587Z,63.00
2019-05-07T07:00:31.928Z,63.00
2019-05-07T07:01:29.428Z,62.63
2019-05-07T07:02:29.431Z,62.63
2019-05-07T07:03:29.414Z,60.98
2019-05-07T07:04:29.445Z,60.52
2019-05-07T07:05:29.399Z,61.27
2019-05-07T07:06:29.459Z,60.33
2019-05-07T07:07:33.860Z,59.59
2019-05-07T07:08:32.437Z,57.43
2019-05-07T07:09:29.348Z,56.98
2019-05-07T07:10:29.425Z,58.67
2019-05-07T07:11:29.344Z,55.88
2019-05-07T07:12:29.428Z,58.10
2019-05-07T07:13:29.301Z,59.61
2019-05-07T07:14:29.306Z,59.86
2019-05-07T07:15:29.426Z,57.54
2019-05-07T07:16:29.322Z,58.38
2019-05-07T07:17:29.252Z,58.64
2019-05-07T07:18:29.335Z,58.56
2019-05-07T07:19:29.237Z,60.28
2019-05-07T07:20:29.281Z,59.49
2019-05-07T07:21:29.211Z,60.96
2019-05-07T07:22:29.262Z,59.45
2019-05-07T07:23:29.192Z,57.82
2019-05-07T07:24:29.279Z,54.26
2019-05-07T07:25:29.180Z,55.96
2019-05-07T07:26:29.191Z,55.71
2019-05-07T07:27:29.143Z,57.98
2019-05-07T07:28:29.203Z,60.92
2019-05-07T07:29:29.133Z,58.96
2019-05-07T07:30:29.145Z,60.42
2019-05-07T07:31:29.113Z,60.77
2019-05-07T07:32:29.129Z,59.97
2019-05-07T07:33:29.086Z,56.85
2019-05-07T07:34:29.153Z,59.07
2019-05-07T07:35:29.080Z,59.01
2019-05-07T07:36:29.159Z,56.60
2019-05-07T07:37:29.043Z,55.78
2019-05-07T07:38:29.069Z,56.04
2019-05-07T07:39:29.023Z,54.86
2019-05-07T07:40:29.127Z,53.04
2019-05-07T07:41:28.991Z,48.72
2019-05-07T07:42:29.102Z,51.95
2019-05-07T07:43:28.999Z,53.85
2019-05-07T07:44:29.006Z,53.50
2019-05-07T07:45:28.966Z,56.81
2019-05-07T07:46:29.027Z,56.43
2019-05-07T07:47:28.924Z,56.79
2019-05-07T07:48:28.933Z,58.55
2019-05-07T07:49:28.908Z,60.90
2019-05-07T07:50:28.977Z,57.20
2019-05-07T07:51:40.675Z,57.86
2019-05-07T07:52:29.877Z,61.13
2019-05-07T07:53:32.173Z,61.34
2019-05-07T07:54:31.992Z,56.92
2019-05-07T07:55:28.915Z,56.56
2019-05-07T07:56:28.827Z,54.49
2019-05-07T07:57:29.910Z,54.49
2019-05-07T07:58:31.494Z,54.44
2019-05-07T07:59:35.872Z,56.02
2019-05-07T08:00:30.081Z,54.13
2019-05-07T08:01:36.284Z,50.52
2019-05-07T08:02:28.767Z,54.49
2019-05-07T08:03:32.829Z,52.89
2019-05-07T08:04:28.740Z,51.01
2019-05-07T08:05:29.790Z,50.02
2019-05-07T08:06:28.738Z,49.01
2019-05-07T08:07:28.749Z,47.14
2019-05-07T08:08:28.704Z,47.34
2019-05-07T08:09:28.765Z,52.70
2019-05-07T08:10:28.677Z,54.05
2019-05-07T08:11:28.705Z,55.38
2019-05-07T08:12:28.695Z,56.30
2019-05-07T08:13:28.690Z,56.76
2019-05-07T08:14:28.630Z,57.07
2019-05-07T08:15:28.704Z,54.51
2019-05-07T08:16:28.620Z,54.36
2019-05-07T08:17:28.727Z,52.37
2019-05-07T08:18:28.646Z,54.05
2019-05-07T08:19:28.644Z,52.37
2019-05-07T08:20:28.564Z,52.10
2019-05-07T08:21:28.688Z,50.34
2019-05-07T08:22:28.542Z,49.40
2019-05-07T08:23:28.653Z,50.65
2019-05-07T08:24:28.899Z,48.80
2019-05-07T08:25:28.570Z,51.98
2019-05-07T08:26:28.533Z,48.35
2019-05-07T08:27:28.584Z,47.39
2019-05-07T08:28:28.472Z,46.44
2019-05-07T08:29:28.596Z,47.31
2019-05-07T08:30:28.455Z,47.44
2019-05-07T08:31:28.540Z,49.04
2019-05-07T08:32:28.449Z,47.14
2019-05-07T08:33:28.541Z,47.38
2019-05-07T08:34:28.405Z,47.14
2019-05-07T08:35:28.444Z,49.30
2019-05-07T08:36:28.397Z,52.40
2019-05-07T08:37:28.464Z,52.43
2019-05-07T08:38:30.136Z,52.43
2019-05-07T08:39:28.463Z,52.66
2019-05-07T08:40:28.341Z,52.78
2019-05-07T08:41:28.435Z,53.92
2019-05-07T08:42:28.323Z,54.16
2019-05-07T08:43:28.387Z,49.66
2019-05-07T08:44:28.309Z,46.92
2019-05-07T08:45:29.442Z,47.26
2019-05-07T08:46:28.414Z,45.98
2019-05-07T08:47:28.313Z,43.49
2019-05-07T08:48:28.265Z,44.12
2019-05-07T08:49:36.888Z,45.04
2019-05-07T08:50:29.232Z,42.61
2019-05-07T08:51:28.264Z,46.20
2019-05-07T08:52:28.208Z,43.34
2019-05-07T08:53:28.251Z,43.02
2019-05-07T08:54:28.213Z,43.57
2019-05-07T08:55:28.265Z,44.93
2019-05-07T08:56:28.186Z,48.91
2019-05-07T08:57:29.201Z,45.23
2019-05-07T08:58:28.149Z,47.22
2019-05-07T08:59:28.197Z,50.37
2019-05-07T09:00:28.122Z,45.72
2019-05-07T09:01:28.265Z,39.95
2019-05-07T09:02:28.101Z,39.93
2019-05-07T09:03:28.108Z,41.42
2019-05-07T09:04:28.076Z,39.76
2019-05-07T09:05:28.122Z,43.16
2019-05-07T09:06:28.086Z,41.46
2019-05-07T09:07:28.154Z,42.40
2019-05-07T09:08:28.034Z,42.52
2019-05-07T09:09:28.068Z,42.54
2019-05-07T09:10:28.018Z,43.26
2019-05-07T09:11:28.091Z,44.48
2019-05-07T09:12:27.993Z,46.00
2019-05-07T09:13:28.105Z,47.16
2019-05-07T09:14:27.969Z,47.51
2019-05-07T09:15:27.986Z,48.93
2019-05-07T09:16:27.981Z,48.03
2019-05-07T09:17:28.054Z,46.24
2019-05-07T09:18:27.924Z,45.94
2019-05-07T09:19:28.021Z,44.07
2019-05-07T09:20:27.904Z,39.99
2019-05-07T09:21:27.924Z,44.21
2019-05-07T09:22:27.914Z,40.08
2019-05-07T09:23:27.938Z,41.65
2019-05-07T09:24:27.861Z,40.12
2019-05-07T09:25:27.952Z,37.96
2019-05-07T09:26:27.845Z,39.15
2019-05-07T09:27:29.944Z,36.92
2019-05-07T09:28:27.831Z,35.50
2019-05-07T09:29:29.946Z,36.62
2019-05-07T09:30:28.626Z,35.82
2019-05-07T09:31:27.893Z,36.77
2019-05-07T09:32:27.794Z,37.40
2019-05-07T09:33:27.804Z,41.06
2019-05-07T09:34:27.767Z,41.47
2019-05-07T09:35:31.946Z,37.23
2019-05-07T09:36:27.728Z,39.48
2019-05-07T09:37:27.824Z,42.66
2019-05-07T09:38:27.717Z,38.95
2019-05-07T09:39:27.741Z,42.07
2019-05-07T09:40:27.688Z,40.19
2019-05-07T09:41:27.776Z,41.07
2019-05-07T09:42:27.678Z,43.20
2019-05-07T09:43:27.666Z,42.38
2019-05-07T09:44:27.639Z,39.61
2019-05-07T09:45:27.679Z,37.46
2019-05-07T09:46:27.628Z,36.93
2019-05-07T09:47:27.743Z,38.04
2019-05-07T09:48:27.597Z,39.81
2019-05-07T09:49:27.606Z,39.70
2019-05-07T09:50:27.576Z,40.13
2019-05-07T09:51:27.618Z,39.64
2019-05-07T09:52:27.570Z,41.00
2019-05-07T09:53:27.664Z,41.77
2019-05-07T09:54:27.547Z,43.02
2019-05-07T09:55:27.543Z,44.97
2019-05-07T09:56:27.509Z,44.08
2019-05-07T09:57:31.367Z,41.86
2019-05-07T09:58:36.774Z,45.21
2019-05-07T09:59:28.480Z,44.51
2019-05-07T10:00:27.474Z,43.29
2019-05-07T10:01:27.456Z,40.47
2019-05-07T10:02:27.538Z,44.70
2019-05-07T10:03:27.437Z,40.25
2019-05-07T10:04:27.503Z,39.52
2019-05-07T10:05:27.411Z,38.73
2019-05-07T10:06:27.425Z,39.32
2019-05-07T10:07:27.407Z,39.83
2019-05-07T10:08:27.434Z,41.08
2019-05-07T10:09:27.381Z,39.47
2019-05-07T10:10:27.443Z,40.49
2019-05-07T10:11:27.347Z,41.50
2019-05-07T10:12:42.148Z,42.54
2019-05-07T10:13:27.329Z,42.76
2019-05-07T10:14:28.396Z,43.59
2019-05-07T10:15:27.307Z,43.38
2019-05-07T10:16:34.856Z,43.99
2019-05-07T10:17:27.303Z,45.15
2019-05-07T10:18:27.295Z,46.70
2019-05-07T10:19:27.313Z,48.46
2019-05-07T10:20:27.308Z,48.82
2019-05-07T10:21:27.242Z,43.51
2019-05-07T10:22:27.363Z,44.79
2019-05-07T10:23:27.219Z,43.65
2019-05-07T10:24:27.240Z,41.60
2019-05-07T10:25:27.201Z,39.89
2019-05-07T10:26:27.244Z,40.96
2019-05-07T10:27:27.179Z,41.08
2019-05-07T10:28:27.213Z,38.54
2019-05-07T10:29:27.145Z,39.43
2019-05-07T10:30:27.170Z,38.35
2019-05-07T10:31:27.133Z,38.05
2019-05-07T10:32:27.185Z,37.21
2019-05-07T10:33:27.155Z,36.49
2019-05-07T10:34:27.198Z,40.96
2019-05-07T10:35:27.085Z,38.22
2019-05-07T10:36:27.110Z,36.67
2019-05-07T10:37:27.065Z,36.82
2019-05-07T10:38:27.162Z,37.81
2019-05-07T10:39:27.042Z,41.55
2019-05-07T10:40:27.136Z,37.95
2019-05-07T10:41:27.015Z,38.20
2019-05-07T10:42:27.110Z,37.23
2019-05-07T10:43:27.012Z,37.93
2019-05-07T10:44:27.065Z,38.71
2019-05-07T10:45:26.989Z,35.41
2019-05-07T10:46:26.977Z,35.39
2019-05-07T10:47:26.957Z,34.29
2019-05-07T10:48:27.030Z,34.54
2019-05-07T10:49:26.934Z,36.71
2019-05-07T10:50:36.335Z,36.93
2019-05-07T10:51:27.907Z,39.94
2019-05-07T10:52:26.937Z,37.02
2019-05-07T10:53:26.902Z,34.39
2019-05-07T10:54:26.933Z,34.83
2019-05-07T10:55:26.881Z,37.07
2019-05-07T10:56:26.938Z,39.35
2019-05-07T10:57:26.845Z,40.19
2019-05-07T10:58:32.014Z,36.71
2019-05-07T10:59:26.821Z,39.64
2019-05-07T11:00:26.967Z,40.05
2019-05-07T11:01:26.852Z,41.30
2019-05-07T11:02:28.825Z,42.33
2019-05-07T11:03:26.790Z,41.95
2019-05-07T11:04:39.247Z,40.45
2019-05-07T11:05:27.767Z,41.16
2019-05-07T11:06:26.802Z,43.47
2019-05-07T11:07:26.735Z,40.94
2019-05-07T11:08:26.858Z,42.05
2019-05-07T11:09:26.712Z,42.66
2019-05-07T11:10:26.759Z,43.04
2019-05-07T11:11:26.701Z,41.88
2019-05-07T11:12:26.749Z,43.24
2019-05-07T11:13:26.707Z,44.99
2019-05-07T11:14:26.755Z,44.18
2019-05-07T11:15:26.651Z,46.80
2019-05-07T11:16:26.666Z,46.47
2019-05-07T11:17:26.640Z,46.95
2019-05-07T11:18:26.723Z,47.56
2019-05-07T11:19:26.607Z,45.21
2019-05-07T11:20:26.748Z,42.19
2019-05-07T11:21:26.598Z,42.82
2019-05-07T11:22:26.608Z,43.61
2019-05-07T11:23:26.570Z,44.34
2019-05-07T11:24:26.672Z,44.01
2019-05-07T11:25:26.541Z,43.30
2019-05-07T11:26:26.633Z,44.68
2019-05-07T11:27:26.525Z,40.53
2019-05-07T11:28:26.544Z,42.78
2019-05-07T11:29:26.542Z,43.08
2019-05-07T11:30:26.559Z,43.47
2019-05-07T11:31:26.470Z,44.87
2019-05-07T11:32:26.570Z,43.23
2019-05-07T11:33:26.454Z,41.24
2019-05-07T11:34:26.514Z,42.64
2019-05-07T11:35:26.442Z,40.31
2019-05-07T11:36:26.550Z,39.64
2019-05-07T11:37:26.415Z,39.97
2019-05-07T11:38:26.407Z,42.09
2019-05-07T11:39:26.399Z,40.57
2019-05-07T11:40:26.430Z,40.75
2019-05-07T11:41:26.380Z,41.60
2019-05-07T11:42:27.458Z,42.72
2019-05-07T11:43:26.341Z,43.10
2019-05-07T11:44:28.482Z,42.35
2019-05-07T11:45:26.318Z,44.26
2019-05-07T11:46:28.413Z,42.58
2019-05-07T11:47:26.333Z,40.36
2019-05-07T11:48:28.324Z,38.68
2019-05-07T11:49:26.291Z,39.20
2019-05-07T11:50:26.290Z,42.37
2019-05-07T11:51:26.259Z,42.72
2019-05-07T11:52:26.380Z,44.34
2019-05-07T11:53:26.266Z,41.06
2019-05-07T11:54:26.352Z,41.87
2019-05-07T11:55:26.210Z,42.60
2019-05-07T11:56:26.237Z,43.43
2019-05-07T11:57:26.198Z,45.03
2019-05-07T11:58:26.237Z,44.07
2019-05-07T11:59:26.183Z,43.47
2019-05-07T12:00:26.313Z,43.04
2019-05-07T12:01:26.146Z,43.67
2019-05-07T12:02:26.165Z,40.53
2019-05-07T12:03:26.131Z,43.04
2019-05-07T12:04:27.852Z,39.28
2019-05-07T12:05:26.107Z,39.20
2019-05-07T12:06:26.209Z,39.93
2019-05-07T12:07:26.078Z,39.59
2019-05-07T12:08:37.627Z,38.07
2019-05-07T12:09:27.094Z,40.36
2019-05-07T12:10:26.120Z,37.70
2019-05-07T12:11:26.037Z,37.31
2019-05-07T12:12:26.146Z,37.41
2019-05-07T12:13:26.014Z,39.48
2019-05-07T12:14:30.969Z,42.49
2019-05-07T12:15:27.039Z,38.06
2019-05-07T12:16:26.058Z,39.59
2019-05-07T12:17:25.974Z,39.99
2019-05-07T12:18:26.068Z,39.48
2019-05-07T12:19:25.953Z,40.94
2019-05-07T12:20:26.043Z,41.60
2019-05-07T12:21:25.943Z,41.12
2019-05-07T12:22:25.993Z,40.81
2019-05-07T12:23:25.909Z,40.85
2019-05-07T12:24:26.012Z,44.97
2019-05-07T12:25:25.914Z,45.07
2019-05-07T12:26:25.916Z,44.04
2019-05-07T12:27:25.867Z,43.84
2019-05-07T12:28:26.978Z,47.36
2019-05-07T12:29:25.840Z,43.00
2019-05-07T12:30:25.883Z,44.99
2019-05-07T12:31:25.826Z,41.91
2019-05-07T12:32:42.791Z,42.69
2019-05-07T12:33:25.799Z,42.66
2019-05-07T12:34:25.921Z,40.88
2019-05-07T12:35:25.792Z,37.54
2019-05-07T12:36:27.934Z,40.50
2019-05-07T12:37:25.782Z,42.49
2019-05-07T12:38:25.796Z,42.78
2019-05-07T12:39:25.739Z,45.20
2019-05-07T12:40:25.844Z,45.72
2019-05-07T12:41:25.724Z,45.93
2019-05-07T12:42:25.741Z,46.62
2019-05-07T12:43:25.691Z,47.83
2019-05-07T12:44:25.737Z,47.27
2019-05-07T12:45:25.687Z,48.90
2019-05-07T12:46:25.747Z,49.56
2019-05-07T12:47:25.643Z,48.19
2019-05-07T12:48:25.673Z,47.19
2019-05-07T12:49:25.621Z,47.27
2019-05-07T12:50:25.710Z,46.53
2019-05-07T12:51:34.604Z,46.98
2019-05-07T12:52:26.592Z,47.52